AEE5MK SARC-SAZM
Flight info
| Callsign | AEE5MK |
|---|---|
| Flight time | 1h 37m |
| Altitude | 38000 |
| Route | KILIP2M KILIP UL793 GUA DCT EZE UW29 VOTRA VOTRA2U |
| Aircraft | A320/M-SDE3FGHIRWY/LB1 |
Departure
| Time | 2026-04-24 19:59 |
|---|---|
| Airport | Corrientes Airport (SARC) |
Arrival
| Time | 2026-04-24 21:36 |
|---|---|
| Airport | Ástor Piazzola International Airport (SAZM) |
| Time | Latitude | Longitude | Altitude | Speed | Heading |
|---|---|---|---|---|---|
| 2026-04-24 19:20 | -27.44852 | -58.75870 | 215 ft | 0 kts | 142° |
| 2026-04-24 19:47 | -27.44839 | -58.75880 | 217 ft | 4 kts | 163° |
| 2026-04-24 19:47 | -27.44820 | -58.75879 | 215 ft | 4 kts | 238° |
| 2026-04-24 19:47 | -27.44812 | -58.75852 | 218 ft | 4 kts | 270° |
| 2026-04-24 19:48 | -27.44813 | -58.75841 | 214 ft | 0 kts | 277° |
| 2026-04-24 19:52 | -27.44807 | -58.75875 | 219 ft | 4 kts | 268° |
| 2026-04-24 19:52 | -27.44809 | -58.75907 | 214 ft | 4 kts | 268° |
| 2026-04-24 19:52 | -27.44808 | -58.75953 | 214 ft | 6 kts | 272° |
| 2026-04-24 19:53 | -27.44806 | -58.76000 | 214 ft | 6 kts | 275° |
| 2026-04-24 19:53 | -27.44799 | -58.76061 | 216 ft | 9 kts | 279° |
| 2026-04-24 19:53 | -27.44793 | -58.76103 | 217 ft | 0 kts | 278° |
| 2026-04-24 19:55 | -27.44793 | -58.76105 | 216 ft | 2 kts | 278° |
| 2026-04-24 19:55 | -27.44776 | -58.76178 | 212 ft | 12 kts | 301° |
| 2026-04-24 19:56 | -27.44696 | -58.76208 | 218 ft | 13 kts | 3° |
| 2026-04-24 19:56 | -27.44599 | -58.76192 | 214 ft | 21 kts | 9° |
| 2026-04-24 19:56 | -27.44415 | -58.76159 | 214 ft | 28 kts | 8° |
| 2026-04-24 19:56 | -27.44230 | -58.76130 | 215 ft | 26 kts | 8° |
| 2026-04-24 19:57 | -27.44058 | -58.76103 | 215 ft | 25 kts | 8° |
| 2026-04-24 19:57 | -27.43891 | -58.76077 | 217 ft | 24 kts | 8° |
| 2026-04-24 19:57 | -27.43733 | -58.76052 | 219 ft | 22 kts | 6° |
| 2026-04-24 19:57 | -27.43577 | -58.76031 | 220 ft | 22 kts | 6° |
| 2026-04-24 19:58 | -27.43491 | -58.76024 | 217 ft | 6 kts | 74° |
| 2026-04-24 19:58 | -27.43514 | -58.76020 | 214 ft | 11 kts | 201° |
| 2026-04-24 19:58 | -27.43806 | -58.76057 | 219 ft | 75 kts | 188° |
| 2026-04-24 19:58 | -27.44510 | -58.76168 | 216 ft | 126 kts | 187° |
| 2026-04-24 19:59 | -27.45480 | -58.76328 | 428 ft | 148 kts | 187° |
| 2026-04-24 19:59 | -27.46546 | -58.76436 | 961 ft | 157 kts | 180° |
| 2026-04-24 19:59 | -27.47627 | -58.76474 | 1601 ft | 159 kts | 180° |
| 2026-04-24 19:59 | -27.48743 | -58.76505 | 2220 ft | 163 kts | 181° |
| 2026-04-24 20:00 | -27.49946 | -58.76545 | 2516 ft | 183 kts | 182° |
| 2026-04-24 20:00 | -27.51271 | -58.76593 | 2891 ft | 197 kts | 183° |
| 2026-04-24 20:00 | -27.52678 | -58.76653 | 3356 ft | 209 kts | 184° |
| 2026-04-24 20:00 | -27.54200 | -58.76721 | 3671 ft | 230 kts | 184° |
| 2026-04-24 20:01 | -27.55890 | -58.76797 | 4005 ft | 255 kts | 184° |
| 2026-04-24 20:01 | -27.57731 | -58.76876 | 4534 ft | 272 kts | 184° |
| 2026-04-24 20:01 | -27.59653 | -58.76956 | 5332 ft | 278 kts | 186° |
| 2026-04-24 20:01 | -27.61604 | -58.77033 | 6204 ft | 282 kts | 187° |
| 2026-04-24 20:02 | -27.62911 | -58.77085 | 6730 ft | 286 kts | 187° |
| 2026-04-24 20:02 | -27.65598 | -58.77197 | 7742 ft | 292 kts | 187° |
| 2026-04-24 20:02 | -27.67650 | -58.77280 | 8501 ft | 298 kts | 187° |
| 2026-04-24 20:02 | -27.69732 | -58.77363 | 9314 ft | 301 kts | 187° |
| 2026-04-24 20:03 | -27.71833 | -58.77446 | 10099 ft | 304 kts | 187° |
| 2026-04-24 20:03 | -27.74012 | -58.77540 | 10458 ft | 324 kts | 187° |
| 2026-04-24 20:03 | -27.76335 | -58.77646 | 10736 ft | 342 kts | 187° |
| 2026-04-24 20:03 | -27.78742 | -58.77749 | 11325 ft | 349 kts | 187° |
| 2026-04-24 20:04 | -27.81180 | -58.77846 | 11978 ft | 352 kts | 187° |
| 2026-04-24 20:04 | -27.83649 | -58.77943 | 12645 ft | 356 kts | 187° |
| 2026-04-24 20:04 | -27.86097 | -58.78037 | 13285 ft | 359 kts | 187° |
| 2026-04-24 20:04 | -27.88608 | -58.78137 | 13907 ft | 362 kts | 187° |
| 2026-04-24 20:05 | -27.91133 | -58.78239 | 14458 ft | 365 kts | 187° |
| 2026-04-24 20:05 | -27.93681 | -58.78345 | 15002 ft | 368 kts | 187° |
| 2026-04-24 20:05 | -27.96253 | -58.78452 | 15539 ft | 371 kts | 187° |
| 2026-04-24 20:05 | -27.98853 | -58.78561 | 16076 ft | 375 kts | 187° |
| 2026-04-24 20:06 | -28.01475 | -58.78668 | 16617 ft | 378 kts | 187° |
| 2026-04-24 20:06 | -28.04115 | -58.78777 | 17149 ft | 381 kts | 187° |
| 2026-04-24 20:06 | -28.06776 | -58.78888 | 17680 ft | 385 kts | 187° |
| 2026-04-24 20:06 | -28.09464 | -58.78997 | 18228 ft | 388 kts | 187° |
| 2026-04-24 20:07 | -28.11261 | -58.79069 | 18551 ft | 390 kts | 187° |
| 2026-04-24 20:07 | -28.14907 | -58.79215 | 19159 ft | 394 kts | 188° |
| 2026-04-24 20:07 | -28.17653 | -58.79328 | 19625 ft | 397 kts | 188° |
| 2026-04-24 20:07 | -28.20430 | -58.79446 | 20114 ft | 399 kts | 188° |
| 2026-04-24 20:08 | -28.23214 | -58.79568 | 20590 ft | 402 kts | 189° |
| 2026-04-24 20:08 | -28.25990 | -58.79688 | 21055 ft | 405 kts | 189° |
| 2026-04-24 20:08 | -28.28814 | -58.79807 | 21511 ft | 408 kts | 189° |
| 2026-04-24 20:08 | -28.31661 | -58.79925 | 21952 ft | 411 kts | 189° |
| 2026-04-24 20:09 | -28.34535 | -58.79953 | 22379 ft | 418 kts | 184° |
| 2026-04-24 20:09 | -28.37449 | -58.79721 | 22811 ft | 422 kts | 183° |
| 2026-04-24 20:09 | -28.40396 | -58.79483 | 23270 ft | 425 kts | 184° |
| 2026-04-24 20:09 | -28.43359 | -58.79247 | 23705 ft | 428 kts | 184° |
| 2026-04-24 20:10 | -28.46336 | -58.79011 | 24105 ft | 430 kts | 185° |
| 2026-04-24 20:10 | -28.49333 | -58.78776 | 24482 ft | 432 kts | 185° |
| 2026-04-24 20:10 | -28.52341 | -58.78542 | 24855 ft | 434 kts | 185° |
| 2026-04-24 20:10 | -28.55357 | -58.78303 | 25229 ft | 436 kts | 185° |
| 2026-04-24 20:11 | -28.58388 | -58.78061 | 25603 ft | 437 kts | 186° |
| 2026-04-24 20:11 | -28.61424 | -58.77818 | 25965 ft | 439 kts | 186° |
| 2026-04-24 20:11 | -28.64485 | -58.77577 | 26333 ft | 441 kts | 186° |
| 2026-04-24 20:11 | -28.67507 | -58.77342 | 26687 ft | 442 kts | 186° |
| 2026-04-24 20:12 | -28.70588 | -58.77101 | 27072 ft | 444 kts | 187° |
| 2026-04-24 20:12 | -28.73681 | -58.76857 | 27407 ft | 446 kts | 187° |
| 2026-04-24 20:12 | -28.76781 | -58.76611 | 27735 ft | 448 kts | 187° |
| 2026-04-24 20:12 | -28.79895 | -58.76362 | 28059 ft | 450 kts | 188° |
| 2026-04-24 20:13 | -28.83027 | -58.76111 | 28390 ft | 452 kts | 188° |
| 2026-04-24 20:13 | -28.86171 | -58.75863 | 28723 ft | 454 kts | 188° |
| 2026-04-24 20:13 | -28.89332 | -58.75614 | 29062 ft | 456 kts | 188° |
| 2026-04-24 20:13 | -28.92500 | -58.75364 | 29407 ft | 458 kts | 188° |
| 2026-04-24 20:14 | -28.95684 | -58.75110 | 29775 ft | 460 kts | 189° |
| 2026-04-24 20:14 | -28.98884 | -58.74858 | 30097 ft | 462 kts | 189° |
| 2026-04-24 20:14 | -29.02104 | -58.74602 | 30360 ft | 464 kts | 189° |
| 2026-04-24 20:14 | -29.05330 | -58.74345 | 30608 ft | 467 kts | 189° |
| 2026-04-24 20:15 | -29.08582 | -58.74086 | 30857 ft | 469 kts | 189° |
| 2026-04-24 20:15 | -29.11840 | -58.73829 | 31135 ft | 470 kts | 189° |
| 2026-04-24 20:15 | -29.15063 | -58.73569 | 31500 ft | 470 kts | 189° |
| 2026-04-24 20:15 | -29.18327 | -58.73303 | 31903 ft | 470 kts | 189° |
| 2026-04-24 20:16 | -29.21587 | -58.73036 | 32259 ft | 470 kts | 189° |
| 2026-04-24 20:16 | -29.24851 | -58.72771 | 32626 ft | 470 kts | 189° |
| 2026-04-24 20:16 | -29.28115 | -58.72508 | 32996 ft | 470 kts | 189° |
| 2026-04-24 20:16 | -29.31376 | -58.72249 | 33366 ft | 470 kts | 189° |
| 2026-04-24 20:17 | -29.34607 | -58.72167 | 33734 ft | 456 kts | 197° |
| 2026-04-24 20:17 | -29.40603 | -58.73483 | 34432 ft | 424 kts | 213° |
| 2026-04-24 20:17 | -29.43273 | -58.74765 | 34793 ft | 409 kts | 220° |
| 2026-04-24 20:18 | -29.44960 | -58.75716 | 35085 ft | 407 kts | 220° |
| 2026-04-24 20:18 | -29.48347 | -58.77611 | 35658 ft | 403 kts | 220° |
| 2026-04-24 20:18 | -29.50828 | -58.78989 | 36043 ft | 400 kts | 220° |
| 2026-04-24 20:18 | -29.53328 | -58.80378 | 36412 ft | 398 kts | 220° |
| 2026-04-24 20:19 | -29.55814 | -58.81761 | 36765 ft | 396 kts | 221° |
| 2026-04-24 20:19 | -29.58285 | -58.83142 | 37108 ft | 394 kts | 221° |
| 2026-04-24 20:19 | -29.60744 | -58.84519 | 37444 ft | 392 kts | 221° |
| 2026-04-24 20:19 | -29.63191 | -58.85887 | 37765 ft | 390 kts | 221° |
| 2026-04-24 20:20 | -29.65725 | -58.87113 | 38002 ft | 403 kts | 213° |
| 2026-04-24 20:20 | -29.68500 | -58.87939 | 38041 ft | 422 kts | 205° |
| 2026-04-24 20:20 | -29.71500 | -58.88224 | 38044 ft | 445 kts | 194° |
| 2026-04-24 20:20 | -29.74631 | -58.88025 | 38042 ft | 451 kts | 192° |
| 2026-04-24 20:21 | -29.80873 | -58.87514 | 38043 ft | 453 kts | 192° |
| 2026-04-24 20:21 | -29.87161 | -58.86981 | 38043 ft | 453 kts | 192° |
| 2026-04-24 20:22 | -29.92420 | -58.86556 | 38043 ft | 452 kts | 192° |
| 2026-04-24 20:22 | -29.98660 | -58.86074 | 38050 ft | 452 kts | 192° |
| 2026-04-24 20:23 | -30.04939 | -58.85582 | 38057 ft | 453 kts | 192° |
| 2026-04-24 20:23 | -30.11233 | -58.85089 | 38059 ft | 453 kts | 192° |
| 2026-04-24 20:24 | -30.17524 | -58.84597 | 38062 ft | 453 kts | 192° |
| 2026-04-24 20:24 | -30.23818 | -58.84104 | 38047 ft | 453 kts | 192° |
| 2026-04-24 20:25 | -30.30103 | -58.83605 | 38048 ft | 453 kts | 192° |
| 2026-04-24 20:25 | -30.36405 | -58.83103 | 38053 ft | 454 kts | 192° |
| 2026-04-24 20:26 | -30.42715 | -58.82598 | 38059 ft | 455 kts | 192° |
| 2026-04-24 20:26 | -30.49024 | -58.82101 | 38061 ft | 454 kts | 193° |
| 2026-04-24 20:27 | -30.55334 | -58.81585 | 38055 ft | 455 kts | 192° |
| 2026-04-24 20:27 | -30.61648 | -58.81039 | 38059 ft | 456 kts | 192° |
| 2026-04-24 20:28 | -30.67938 | -58.80482 | 38123 ft | 456 kts | 192° |
| 2026-04-24 20:28 | -30.74256 | -58.79929 | 38036 ft | 453 kts | 193° |
| 2026-04-24 20:29 | -30.80551 | -58.79399 | 38038 ft | 454 kts | 193° |
| 2026-04-24 20:29 | -30.86857 | -58.78875 | 38045 ft | 455 kts | 193° |
| 2026-04-24 20:30 | -30.93180 | -58.78333 | 38082 ft | 456 kts | 193° |
| 2026-04-24 20:30 | -30.99503 | -58.77808 | 38073 ft | 455 kts | 193° |
| 2026-04-24 20:31 | -31.05791 | -58.77315 | 38065 ft | 455 kts | 193° |
| 2026-04-24 20:31 | -31.12112 | -58.76823 | 38062 ft | 456 kts | 193° |
| 2026-04-24 20:32 | -31.18450 | -58.76329 | 38050 ft | 456 kts | 194° |
| 2026-04-24 20:32 | -31.24787 | -58.75823 | 38043 ft | 457 kts | 194° |
| 2026-04-24 20:33 | -31.31143 | -58.75312 | 38044 ft | 458 kts | 194° |
| 2026-04-24 20:33 | -31.37496 | -58.74810 | 38044 ft | 458 kts | 194° |
| 2026-04-24 20:34 | -31.43862 | -58.74311 | 38080 ft | 459 kts | 194° |
| 2026-04-24 20:34 | -31.50242 | -58.73790 | 38074 ft | 460 kts | 194° |
| 2026-04-24 20:35 | -31.56582 | -58.73274 | 38071 ft | 459 kts | 194° |
| 2026-04-24 20:35 | -31.62958 | -58.72764 | 38079 ft | 460 kts | 193° |
| 2026-04-24 20:36 | -31.69305 | -58.72257 | 38036 ft | 456 kts | 193° |
| 2026-04-24 20:36 | -31.75651 | -58.71751 | 38036 ft | 458 kts | 193° |
| 2026-04-24 20:37 | -31.82016 | -58.71239 | 38050 ft | 459 kts | 193° |
| 2026-04-24 20:37 | -31.88408 | -58.70721 | 38072 ft | 460 kts | 192° |
| 2026-04-24 20:38 | -31.94791 | -58.70208 | 38072 ft | 460 kts | 192° |
| 2026-04-24 20:38 | -32.01147 | -58.69701 | 38070 ft | 460 kts | 192° |
| 2026-04-24 20:39 | -32.07541 | -58.69185 | 38126 ft | 461 kts | 191° |
| 2026-04-24 20:39 | -32.13926 | -58.68661 | 38037 ft | 458 kts | 191° |
| 2026-04-24 20:40 | -32.20288 | -58.68142 | 38033 ft | 459 kts | 191° |
| 2026-04-24 20:40 | -32.26669 | -58.67630 | 38044 ft | 460 kts | 191° |
| 2026-04-24 20:41 | -32.33061 | -58.67114 | 38055 ft | 461 kts | 191° |
| 2026-04-24 20:41 | -32.39468 | -58.66587 | 38064 ft | 462 kts | 190° |
| 2026-04-24 20:42 | -32.45883 | -58.66044 | 38070 ft | 462 kts | 190° |
| 2026-04-24 20:42 | -32.52298 | -58.65501 | 38073 ft | 462 kts | 190° |
| 2026-04-24 20:43 | -32.58695 | -58.64963 | 38044 ft | 459 kts | 189° |
| 2026-04-24 20:43 | -32.65029 | -58.64434 | 38046 ft | 459 kts | 189° |
| 2026-04-24 20:44 | -32.71414 | -58.63903 | 38049 ft | 460 kts | 189° |
| 2026-04-24 20:44 | -32.77816 | -58.63366 | 38048 ft | 461 kts | 189° |
| 2026-04-24 20:45 | -32.84200 | -58.62831 | 38033 ft | 459 kts | 189° |
| 2026-04-24 20:45 | -32.90584 | -58.62300 | 38030 ft | 461 kts | 189° |
| 2026-04-24 20:46 | -32.96987 | -58.61752 | 38036 ft | 461 kts | 189° |
| 2026-04-24 20:46 | -33.03354 | -58.61237 | 38064 ft | 460 kts | 189° |
| 2026-04-24 20:47 | -33.09737 | -58.60946 | 38078 ft | 458 kts | 191° |
| 2026-04-24 20:47 | -33.16107 | -58.60759 | 38074 ft | 458 kts | 191° |
| 2026-04-24 20:48 | -33.22485 | -58.60522 | 38065 ft | 459 kts | 189° |
| 2026-04-24 20:48 | -33.28845 | -58.60238 | 38040 ft | 457 kts | 189° |
| 2026-04-24 20:49 | -33.35211 | -58.59957 | 38043 ft | 458 kts | 189° |
| 2026-04-24 20:49 | -33.41590 | -58.59682 | 38051 ft | 459 kts | 189° |
| 2026-04-24 20:50 | -33.47980 | -58.59411 | 38079 ft | 460 kts | 189° |
| 2026-04-24 20:50 | -33.54372 | -58.59135 | 38074 ft | 460 kts | 189° |
| 2026-04-24 20:51 | -33.60770 | -58.58851 | 38072 ft | 460 kts | 189° |
| 2026-04-24 20:51 | -33.67127 | -58.58577 | 38068 ft | 460 kts | 188° |
| 2026-04-24 20:52 | -33.73494 | -58.58296 | 38045 ft | 457 kts | 188° |
| 2026-04-24 20:52 | -33.79855 | -58.58022 | 38048 ft | 457 kts | 188° |
| 2026-04-24 20:53 | -33.86225 | -58.57754 | 38051 ft | 458 kts | 188° |
| 2026-04-24 20:53 | -33.92600 | -58.57478 | 38075 ft | 459 kts | 188° |
| 2026-04-24 20:54 | -33.98985 | -58.57197 | 38072 ft | 459 kts | 188° |
| 2026-04-24 20:54 | -34.05362 | -58.56917 | 38071 ft | 458 kts | 188° |
| 2026-04-24 20:55 | -34.11739 | -58.56642 | 38063 ft | 458 kts | 187° |
| 2026-04-24 20:55 | -34.18055 | -58.56366 | 38051 ft | 456 kts | 187° |
| 2026-04-24 20:56 | -34.24403 | -58.56093 | 38054 ft | 457 kts | 187° |
| 2026-04-24 20:56 | -34.30770 | -58.55818 | 38058 ft | 457 kts | 187° |
| 2026-04-24 20:57 | -34.37131 | -58.55542 | 38084 ft | 457 kts | 187° |
| 2026-04-24 20:57 | -34.43497 | -58.55255 | 38077 ft | 457 kts | 187° |
| 2026-04-24 20:58 | -34.49855 | -58.54974 | 38080 ft | 457 kts | 187° |
| 2026-04-24 20:58 | -34.56213 | -58.54694 | 38050 ft | 457 kts | 187° |
| 2026-04-24 20:59 | -34.62522 | -58.54414 | 38049 ft | 457 kts | 187° |
| 2026-04-24 20:59 | -34.68875 | -58.54130 | 38048 ft | 457 kts | 187° |
| 2026-04-24 21:00 | -34.75232 | -58.53841 | 38094 ft | 457 kts | 187° |
| 2026-04-24 21:00 | -34.81559 | -58.53564 | 38030 ft | 453 kts | 187° |
| 2026-04-24 21:01 | -34.87873 | -58.53207 | 38028 ft | 455 kts | 186° |
| 2026-04-24 21:01 | -34.94201 | -58.52690 | 38038 ft | 456 kts | 185° |
| 2026-04-24 21:02 | -35.00496 | -58.52167 | 38059 ft | 456 kts | 185° |
| 2026-04-24 21:02 | -35.06837 | -58.51672 | 38051 ft | 456 kts | 185° |
| 2026-04-24 21:03 | -35.13167 | -58.51195 | 38050 ft | 456 kts | 185° |
| 2026-04-24 21:03 | -35.19505 | -58.50720 | 38070 ft | 456 kts | 185° |
| 2026-04-24 21:04 | -35.25831 | -58.50240 | 38051 ft | 455 kts | 185° |
| 2026-04-24 21:04 | -35.32144 | -58.49760 | 38052 ft | 455 kts | 185° |
| 2026-04-24 21:05 | -35.38463 | -58.49278 | 38048 ft | 455 kts | 185° |
| 2026-04-24 21:05 | -35.44745 | -58.48802 | 38069 ft | 455 kts | 185° |
| 2026-04-24 21:06 | -35.51063 | -58.48321 | 38064 ft | 455 kts | 185° |
| 2026-04-24 21:06 | -35.57384 | -58.47835 | 38063 ft | 455 kts | 185° |
| 2026-04-24 21:07 | -35.63699 | -58.47353 | 38078 ft | 455 kts | 185° |
| 2026-04-24 21:07 | -35.70018 | -58.46865 | 38066 ft | 455 kts | 185° |
| 2026-04-24 21:08 | -35.76339 | -58.46057 | 38067 ft | 465 kts | 175° |
| 2026-04-24 21:08 | -35.82622 | -58.44028 | 38078 ft | 467 kts | 173° |
| 2026-04-24 21:09 | -35.88915 | -58.41962 | 38074 ft | 467 kts | 173° |
| 2026-04-24 21:09 | -35.95196 | -58.39901 | 38067 ft | 467 kts | 173° |
| 2026-04-24 21:10 | -36.01489 | -58.37847 | 38087 ft | 468 kts | 173° |
| 2026-04-24 21:10 | -36.04631 | -58.36821 | 37815 ft | 467 kts | 173° |
| 2026-04-24 21:10 | -36.07765 | -58.35795 | 37547 ft | 465 kts | 173° |
| 2026-04-24 21:11 | -36.10895 | -58.34767 | 37285 ft | 465 kts | 173° |
| 2026-04-24 21:11 | -36.14018 | -58.33736 | 36836 ft | 465 kts | 173° |
| 2026-04-24 21:11 | -36.17113 | -58.32716 | 36176 ft | 467 kts | 172° |
| 2026-04-24 21:11 | -36.20240 | -58.31685 | 35762 ft | 463 kts | 172° |
| 2026-04-24 21:12 | -36.23350 | -58.30651 | 35242 ft | 462 kts | 172° |
| 2026-04-24 21:12 | -36.25404 | -58.29965 | 34920 ft | 460 kts | 172° |
| 2026-04-24 21:12 | -36.29527 | -58.28596 | 34260 ft | 457 kts | 172° |
| 2026-04-24 21:12 | -36.32597 | -58.27580 | 33709 ft | 455 kts | 172° |
| 2026-04-24 21:13 | -36.35642 | -58.26576 | 33211 ft | 451 kts | 172° |
| 2026-04-24 21:13 | -36.38664 | -58.25577 | 32714 ft | 447 kts | 172° |
| 2026-04-24 21:13 | -36.41658 | -58.24587 | 32222 ft | 444 kts | 172° |
| 2026-04-24 21:13 | -36.43639 | -58.23930 | 31896 ft | 442 kts | 172° |
| 2026-04-24 21:14 | -36.46599 | -58.22947 | 31416 ft | 438 kts | 172° |
| 2026-04-24 21:14 | -36.50483 | -58.21665 | 30797 ft | 433 kts | 172° |
| 2026-04-24 21:14 | -36.53388 | -58.20706 | 30334 ft | 430 kts | 172° |
| 2026-04-24 21:14 | -36.56267 | -58.19753 | 29844 ft | 426 kts | 171° |
| 2026-04-24 21:15 | -36.58194 | -58.19110 | 29550 ft | 423 kts | 171° |
| 2026-04-24 21:15 | -36.61017 | -58.18162 | 29117 ft | 418 kts | 171° |
| 2026-04-24 21:15 | -36.63805 | -58.17226 | 28702 ft | 413 kts | 171° |
| 2026-04-24 21:15 | -36.66565 | -58.16303 | 28292 ft | 409 kts | 171° |
| 2026-04-24 21:16 | -36.69300 | -58.15390 | 27875 ft | 405 kts | 171° |
| 2026-04-24 21:16 | -36.72010 | -58.14482 | 27464 ft | 402 kts | 171° |
| 2026-04-24 21:16 | -36.74663 | -58.13594 | 27058 ft | 399 kts | 171° |
| 2026-04-24 21:16 | -36.77343 | -58.12700 | 26650 ft | 397 kts | 171° |
| 2026-04-24 21:17 | -36.80002 | -58.11813 | 26226 ft | 395 kts | 171° |
| 2026-04-24 21:17 | -36.82646 | -58.10930 | 25794 ft | 393 kts | 171° |
| 2026-04-24 21:17 | -36.85284 | -58.10050 | 25365 ft | 391 kts | 171° |
| 2026-04-24 21:17 | -36.87903 | -58.09173 | 24924 ft | 390 kts | 171° |
| 2026-04-24 21:18 | -36.90521 | -58.08293 | 24476 ft | 389 kts | 171° |
| 2026-04-24 21:18 | -36.93128 | -58.07414 | 24032 ft | 387 kts | 171° |
| 2026-04-24 21:18 | -36.95730 | -58.06538 | 23575 ft | 387 kts | 170° |
| 2026-04-24 21:18 | -36.98326 | -58.05661 | 23083 ft | 385 kts | 170° |
| 2026-04-24 21:19 | -37.00901 | -58.04790 | 22626 ft | 382 kts | 170° |
| 2026-04-24 21:19 | -37.03456 | -58.03924 | 22171 ft | 379 kts | 170° |
| 2026-04-24 21:19 | -37.05933 | -58.02956 | 21765 ft | 379 kts | 162° |
| 2026-04-24 21:19 | -37.08280 | -58.01413 | 21342 ft | 382 kts | 151° |
| 2026-04-24 21:20 | -37.12702 | -57.97801 | 20487 ft | 377 kts | 151° |
| 2026-04-24 21:20 | -37.14897 | -57.96008 | 20046 ft | 375 kts | 151° |
| 2026-04-24 21:20 | -37.17080 | -57.94225 | 19626 ft | 374 kts | 151° |
| 2026-04-24 21:21 | -37.19250 | -57.92450 | 19195 ft | 372 kts | 151° |
| 2026-04-24 21:21 | -37.21412 | -57.90681 | 18774 ft | 370 kts | 151° |
| 2026-04-24 21:21 | -37.23564 | -57.88922 | 18354 ft | 368 kts | 150° |
| 2026-04-24 21:21 | -37.25705 | -57.87169 | 17887 ft | 367 kts | 150° |
| 2026-04-24 21:22 | -37.27833 | -57.85424 | 17471 ft | 364 kts | 150° |
| 2026-04-24 21:22 | -37.29940 | -57.83696 | 17056 ft | 361 kts | 150° |
| 2026-04-24 21:22 | -37.32038 | -57.81974 | 16647 ft | 359 kts | 150° |
| 2026-04-24 21:22 | -37.34122 | -57.80261 | 16231 ft | 357 kts | 150° |
| 2026-04-24 21:23 | -37.36196 | -57.78552 | 15819 ft | 355 kts | 150° |
| 2026-04-24 21:23 | -37.38257 | -57.76852 | 15423 ft | 354 kts | 150° |
| 2026-04-24 21:23 | -37.40310 | -57.75161 | 15013 ft | 352 kts | 150° |
| 2026-04-24 21:23 | -37.42357 | -57.73476 | 14608 ft | 351 kts | 150° |
| 2026-04-24 21:24 | -37.44396 | -57.71797 | 14218 ft | 350 kts | 150° |
| 2026-04-24 21:24 | -37.46415 | -57.70132 | 13789 ft | 349 kts | 150° |
| 2026-04-24 21:24 | -37.48435 | -57.68466 | 13370 ft | 348 kts | 150° |
| 2026-04-24 21:24 | -37.50454 | -57.66798 | 12967 ft | 346 kts | 150° |
| 2026-04-24 21:25 | -37.52459 | -57.65145 | 12575 ft | 343 kts | 150° |
| 2026-04-24 21:25 | -37.54461 | -57.63542 | 12192 ft | 340 kts | 151° |
| 2026-04-24 21:25 | -37.56473 | -57.61972 | 11796 ft | 338 kts | 151° |
| 2026-04-24 21:25 | -37.58473 | -57.60426 | 11410 ft | 336 kts | 152° |
| 2026-04-24 21:26 | -37.60465 | -57.58890 | 11023 ft | 335 kts | 151° |
| 2026-04-24 21:26 | -37.62447 | -57.57355 | 10634 ft | 333 kts | 151° |
| 2026-04-24 21:26 | -37.64407 | -57.55826 | 10331 ft | 329 kts | 151° |
| 2026-04-24 21:26 | -37.66348 | -57.54306 | 9999 ft | 326 kts | 151° |
| 2026-04-24 21:27 | -37.68249 | -57.52815 | 9834 ft | 316 kts | 151° |
| 2026-04-24 21:27 | -37.70090 | -57.51370 | 9625 ft | 309 kts | 151° |
| 2026-04-24 21:27 | -37.71910 | -57.49942 | 9293 ft | 307 kts | 151° |
| 2026-04-24 21:27 | -37.73719 | -57.48521 | 8940 ft | 305 kts | 151° |
| 2026-04-24 21:28 | -37.75519 | -57.47103 | 8586 ft | 304 kts | 151° |
| 2026-04-24 21:28 | -37.77294 | -57.45708 | 8236 ft | 303 kts | 151° |
| 2026-04-24 21:28 | -37.79081 | -57.44305 | 7899 ft | 302 kts | 151° |
| 2026-04-24 21:28 | -37.80864 | -57.42900 | 7562 ft | 301 kts | 151° |
| 2026-04-24 21:29 | -37.82639 | -57.41501 | 7226 ft | 300 kts | 151° |
| 2026-04-24 21:29 | -37.84412 | -57.40107 | 6899 ft | 299 kts | 151° |
| 2026-04-24 21:29 | -37.86177 | -57.38718 | 6564 ft | 298 kts | 151° |
| 2026-04-24 21:29 | -37.87940 | -57.37329 | 6219 ft | 297 kts | 151° |
| 2026-04-24 21:30 | -37.89690 | -57.35948 | 5959 ft | 293 kts | 151° |
| 2026-04-24 21:30 | -37.91376 | -57.34614 | 5830 ft | 276 kts | 152° |
| 2026-04-24 21:30 | -37.93060 | -57.33671 | 5567 ft | 257 kts | 173° |
| 2026-04-24 21:30 | -37.94792 | -57.33596 | 5130 ft | 244 kts | 195° |
| 2026-04-24 21:31 | -37.96348 | -57.34305 | 4662 ft | 234 kts | 216° |
| 2026-04-24 21:31 | -37.97679 | -57.35456 | 4138 ft | 232 kts | 219° |
| 2026-04-24 21:31 | -37.99016 | -57.36630 | 3552 ft | 235 kts | 218° |
| 2026-04-24 21:31 | -38.00379 | -57.37821 | 2828 ft | 242 kts | 218° |
| 2026-04-24 21:32 | -38.01545 | -57.39302 | 2089 ft | 242 kts | 248° |
| 2026-04-24 21:32 | -38.01713 | -57.41300 | 1775 ft | 221 kts | 288° |
| 2026-04-24 21:32 | -38.01103 | -57.42966 | 1697 ft | 199 kts | 304° |
| 2026-04-24 21:32 | -38.00360 | -57.44341 | 1711 ft | 180 kts | 306° |
| 2026-04-24 21:33 | -37.99635 | -57.45606 | 1714 ft | 175 kts | 306° |
| 2026-04-24 21:33 | -37.98976 | -57.46780 | 1692 ft | 150 kts | 307° |
| 2026-04-24 21:33 | -37.98418 | -57.47800 | 1702 ft | 134 kts | 306° |
| 2026-04-24 21:33 | -37.97896 | -57.48763 | 1491 ft | 130 kts | 306° |
| 2026-04-24 21:34 | -37.97395 | -57.49700 | 1311 ft | 127 kts | 306° |
| 2026-04-24 21:34 | -37.96904 | -57.50626 | 1135 ft | 126 kts | 306° |
| 2026-04-24 21:34 | -37.96416 | -57.51559 | 979 ft | 127 kts | 306° |
| 2026-04-24 21:34 | -37.95933 | -57.52486 | 782 ft | 126 kts | 306° |
| 2026-04-24 21:35 | -37.95434 | -57.53417 | 623 ft | 130 kts | 308° |
| 2026-04-24 21:35 | -37.94935 | -57.54365 | 464 ft | 129 kts | 306° |
| 2026-04-24 21:35 | -37.94430 | -57.55328 | 297 ft | 136 kts | 305° |
| 2026-04-24 21:35 | -37.93927 | -57.56339 | 87 ft | 134 kts | 305° |
| 2026-04-24 21:36 | -37.93463 | -57.57260 | 51 ft | 112 kts | 304° |
| 2026-04-24 21:36 | -37.93169 | -57.57824 | 53 ft | 34 kts | 302° |
| 2026-04-24 21:36 | -37.93137 | -57.57892 | 51 ft | 8 kts | 298° |
| 2026-04-24 21:36 | -37.93152 | -57.57973 | 52 ft | 11 kts | 224° |
| 2026-04-24 21:37 | -37.93204 | -57.58018 | 54 ft | 8 kts | 213° |
| 2026-04-24 21:37 | -37.93258 | -57.58038 | 52 ft | 9 kts | 157° |
| 2026-04-24 21:37 | -37.93303 | -57.58063 | 54 ft | 9 kts | 287° |
| 2026-04-24 21:37 | -37.93258 | -57.58109 | 52 ft | 2 kts | 328° |